createdAt,value
2023-01-23T00:01:01.180Z,101935.75
2023-01-23T00:03:27.604Z,101932.97
2023-01-23T00:06:00.896Z,101938.53
2023-01-23T00:08:27.863Z,101934.97
2023-01-23T00:10:54.317Z,101927.97
2023-01-23T00:13:21.337Z,101931.34
2023-01-23T00:15:49.121Z,101929.88
2023-01-23T00:18:16.148Z,101930.06
2023-01-23T00:20:42.941Z,101936.22
2023-01-23T00:23:10.914Z,101927.38
2023-01-23T00:25:37.378Z,101933.59
2023-01-23T00:28:04.501Z,101932.06
2023-01-23T00:30:30.934Z,101933.69
2023-01-23T00:32:57.346Z,101926.50
2023-01-23T00:35:23.936Z,101925.72
2023-01-23T00:37:50.395Z,101915.06
2023-01-23T00:40:17.279Z,101926.94
2023-01-23T00:42:43.969Z,101926.00
2023-01-23T00:45:11.412Z,101919.56
2023-01-23T00:47:37.834Z,101920.63
2023-01-23T00:50:08.064Z,101927.75
2023-01-23T00:52:35.223Z,101924.06
2023-01-23T00:55:01.994Z,101927.88
2023-01-23T00:57:28.640Z,101929.81
2023-01-23T00:59:55.132Z,101931.56
2023-01-23T01:02:21.571Z,101925.50
2023-01-23T01:04:47.948Z,101927.56
2023-01-23T01:07:14.432Z,101927.75
2023-01-23T01:09:40.903Z,101926.97
2023-01-23T01:12:07.408Z,101923.59
2023-01-23T01:14:33.819Z,101933.56
2023-01-23T01:17:00.366Z,101934.69
2023-01-23T01:19:28.199Z,101941.94
2023-01-23T01:21:54.654Z,101944.91
2023-01-23T01:24:21.047Z,101944.81
2023-01-23T01:26:49.621Z,101944.22
2023-01-23T01:29:16.191Z,101943.78
2023-01-23T01:31:43.002Z,101942.84
2023-01-23T01:34:09.468Z,101938.59
2023-01-23T01:36:35.929Z,101945.25
2023-01-23T01:39:02.448Z,101951.88
2023-01-23T01:41:28.826Z,101945.59
2023-01-23T01:43:57.148Z,101949.84
2023-01-23T01:46:28.356Z,101949.59
2023-01-23T01:49:09.273Z,101956.59
2023-01-23T01:51:58.254Z,101950.28
2023-01-23T01:54:53.285Z,101953.91
2023-01-23T01:57:25.466Z,101959.25
2023-01-23T02:00:08.950Z,101952.16
2023-01-23T02:02:39.086Z,101958.16
2023-01-23T02:05:12.439Z,101965.00
2023-01-23T02:07:44.635Z,101957.72
2023-01-23T02:10:12.776Z,101968.09
2023-01-23T02:12:41.382Z,101968.09
2023-01-23T02:15:08.592Z,101960.91
2023-01-23T02:17:36.913Z,101961.53
2023-01-23T02:20:10.543Z,101959.59
2023-01-23T02:23:01.304Z,101962.53
2023-01-23T02:25:40.648Z,101965.34
2023-01-23T02:28:07.207Z,101962.53
2023-01-23T02:30:36.799Z,101967.59
2023-01-23T02:33:10.004Z,101962.03
2023-01-23T02:35:37.258Z,101969.72
2023-01-23T02:38:05.712Z,101968.78
2023-01-23T02:40:38.279Z,101972.84
2023-01-23T02:43:06.684Z,101978.22
2023-01-23T02:45:33.815Z,101977.44
2023-01-23T02:48:06.074Z,101978.41
2023-01-23T02:50:32.567Z,101976.66
2023-01-23T02:52:58.965Z,101973.28
2023-01-23T02:55:29.672Z,101979.44
2023-01-23T02:58:16.819Z,101965.91
2023-01-23T03:00:43.620Z,101967.84
2023-01-23T03:03:13.064Z,101968.59
2023-01-23T03:05:41.998Z,101967.72
2023-01-23T03:08:08.619Z,101966.88
2023-01-23T03:10:35.100Z,101964.28
2023-01-23T03:13:03.440Z,101963.41
2023-01-23T03:15:33.318Z,101962.66
2023-01-23T03:18:00.099Z,101959.97
2023-01-23T03:20:27.556Z,101962.72
2023-01-23T03:22:56.828Z,101964.47
2023-01-23T03:25:23.393Z,101961.78
2023-01-23T03:27:49.791Z,101967.22
2023-01-23T03:30:22.099Z,101971.72
2023-01-23T03:32:48.639Z,101969.84
2023-01-23T03:35:22.285Z,101979.78
2023-01-23T03:37:49.665Z,101978.75
2023-01-23T03:40:37.439Z,101967.16
2023-01-23T03:43:04.971Z,101972.59
2023-01-23T03:45:31.828Z,101967.91
2023-01-23T03:47:58.424Z,101980.38
2023-01-23T03:50:24.977Z,101974.16
2023-01-23T03:52:51.333Z,101970.59
2023-01-23T03:55:17.878Z,101971.38
2023-01-23T03:57:46.673Z,101974.94
2023-01-23T04:00:13.859Z,101966.97
2023-01-23T04:02:41.308Z,101975.88
2023-01-23T04:05:08.120Z,101980.31
2023-01-23T04:07:34.590Z,101982.91
2023-01-23T04:10:05.826Z,101976.56
2023-01-23T04:12:32.230Z,101973.97
2023-01-23T04:15:01.799Z,101981.06
2023-01-23T04:17:28.195Z,101981.06
2023-01-23T04:19:54.687Z,101967.66
2023-01-23T04:22:21.039Z,101986.44
2023-01-23T04:24:47.604Z,101981.94
2023-01-23T04:27:13.975Z,101995.19
2023-01-23T04:29:40.408Z,101991.47
2023-01-23T04:32:11.835Z,101986.94
2023-01-23T04:34:38.280Z,101987.94
2023-01-23T04:37:04.615Z,101993.88
2023-01-23T04:39:32.493Z,101994.88
2023-01-23T04:41:59.126Z,102007.41
2023-01-23T04:44:26.887Z,102005.50
2023-01-23T04:46:54.155Z,102009.94
2023-01-23T04:49:22.836Z,102014.44
2023-01-23T04:51:50.105Z,102024.13
2023-01-23T04:54:17.812Z,102020.66
2023-01-23T04:56:47.344Z,102029.78
2023-01-23T04:59:15.850Z,102036.88
2023-01-23T05:01:42.527Z,102036.88
2023-01-23T05:04:09.133Z,102031.50
2023-01-23T05:06:35.536Z,102041.38
2023-01-23T05:09:04.761Z,102041.38
2023-01-23T05:11:31.425Z,102043.91
2023-01-23T05:13:57.981Z,102043.97
2023-01-23T05:16:24.568Z,102037.84
2023-01-23T05:18:51.118Z,102039.72
2023-01-23T05:21:20.079Z,102045.19
2023-01-23T05:23:46.545Z,102045.19
2023-01-23T05:26:12.913Z,102053.09
2023-01-23T05:28:39.468Z,102048.66
2023-01-23T05:31:08.200Z,102049.41
2023-01-23T05:33:34.853Z,102062.84
2023-01-23T05:36:04.071Z,102063.97
2023-01-23T05:38:32.925Z,102053.22
2023-01-23T05:40:59.319Z,102056.09
2023-01-23T05:43:25.671Z,102063.28
2023-01-23T05:45:52.164Z,102070.34
2023-01-23T05:48:18.707Z,102068.41
2023-01-23T05:50:47.283Z,102065.91
2023-01-23T05:53:13.778Z,102066.84
2023-01-23T05:55:40.375Z,102072.91
2023-01-23T05:58:07.529Z,102067.63
2023-01-23T06:00:34.073Z,102071.34
2023-01-23T06:03:03.363Z,102078.38
2023-01-23T06:05:30.181Z,102064.97
2023-01-23T06:07:59.062Z,102067.63
2023-01-23T06:10:25.707Z,102063.22
2023-01-23T06:12:52.340Z,102069.63
2023-01-23T06:15:21.633Z,102069.63
2023-01-23T06:17:48.202Z,102068.59
2023-01-23T06:20:14.584Z,102065.97
2023-01-23T06:22:43.796Z,102060.72
2023-01-23T06:25:10.240Z,102070.06
2023-01-23T06:27:36.611Z,102065.81
2023-01-23T06:30:08.627Z,102061.81
2023-01-23T06:32:35.175Z,102064.75
2023-01-23T06:35:02.294Z,102067.25
2023-01-23T06:37:28.832Z,102061.78
2023-01-23T06:39:55.240Z,102056.41
2023-01-23T06:42:21.702Z,102064.41
2023-01-23T06:44:48.186Z,102072.88
2023-01-23T06:47:18.524Z,102074.75
2023-01-23T06:49:44.957Z,102071.13
2023-01-23T06:52:11.419Z,102072.88
2023-01-23T06:54:40.288Z,102075.47
2023-01-23T06:57:13.038Z,102084.97
2023-01-23T06:59:39.565Z,102088.06
2023-01-23T07:02:06.615Z,102095.00
2023-01-23T07:04:33.402Z,102095.34
2023-01-23T07:06:59.840Z,102097.22
2023-01-23T07:09:26.239Z,102114.19
2023-01-23T07:11:52.633Z,102122.00
2023-01-23T07:14:19.038Z,102122.88
2023-01-23T07:16:48.172Z,102119.97
2023-01-23T07:19:14.905Z,102130.53
2023-01-23T07:21:43.544Z,102134.59
2023-01-23T07:24:10.105Z,102133.91
2023-01-23T07:26:36.720Z,102151.31
2023-01-23T07:29:03.126Z,102149.84
2023-01-23T07:31:29.586Z,102149.22
2023-01-23T07:33:56.020Z,102150.53
2023-01-23T07:36:22.414Z,102158.44
2023-01-23T07:38:51.354Z,102152.75
2023-01-23T07:41:17.771Z,102147.91
2023-01-23T07:43:44.420Z,102158.41
2023-01-23T07:46:10.889Z,102157.13
2023-01-23T07:48:37.887Z,102151.75
2023-01-23T07:51:05.112Z,102156.94
2023-01-23T07:53:31.993Z,102152.19
2023-01-23T07:56:04.731Z,102155.47
2023-01-23T07:58:31.103Z,102155.16
2023-01-23T08:00:57.696Z,102148.50
2023-01-23T08:03:24.354Z,102156.31
2023-01-23T08:05:50.922Z,102147.19
2023-01-23T08:08:17.406Z,102153.25
2023-01-23T08:10:43.922Z,102154.91
2023-01-23T08:13:14.915Z,102163.66
2023-01-23T08:15:43.513Z,102160.78
2023-01-23T08:18:12.260Z,102153.59
2023-01-23T08:20:43.516Z,102158.22
2023-01-23T08:23:10.035Z,102153.78
2023-01-23T08:25:38.851Z,102149.34
2023-01-23T08:28:05.241Z,102155.53
2023-01-23T08:30:31.752Z,102153.44
2023-01-23T08:32:58.647Z,102152.47
2023-01-23T08:35:25.030Z,102152.16
2023-01-23T08:37:51.423Z,102142.09
2023-01-23T08:40:23.030Z,102146.41
2023-01-23T08:42:49.556Z,102148.66
2023-01-23T08:45:16.007Z,102148.47
2023-01-23T08:47:42.441Z,102144.47
2023-01-23T08:50:09.770Z,102152.22
2023-01-23T08:52:36.217Z,102152.78
2023-01-23T08:55:02.978Z,102145.50
2023-01-23T08:57:29.445Z,102149.94
2023-01-23T08:59:56.415Z,102147.94
2023-01-23T09:02:23.083Z,102151.56
2023-01-23T09:04:56.868Z,102154.25
2023-01-23T09:07:23.443Z,102156.59
2023-01-23T09:09:50.193Z,102160.25
2023-01-23T09:12:16.654Z,102161.09
2023-01-23T09:14:45.649Z,102170.81
2023-01-23T09:17:12.214Z,102175.16
2023-01-23T09:19:43.504Z,102165.44
2023-01-23T09:22:10.094Z,102174.97
2023-01-23T09:24:36.476Z,102163.06
2023-01-23T09:27:03.047Z,102162.13
2023-01-23T09:29:32.319Z,102161.75
2023-01-23T09:32:02.050Z,102165.41
2023-01-23T09:34:29.553Z,102162.44
2023-01-23T09:36:56.575Z,102169.56
2023-01-23T09:39:23.149Z,102165.81
2023-01-23T09:41:49.827Z,102166.59
2023-01-23T09:44:22.125Z,102163.78
2023-01-23T09:46:55.735Z,102175.44
2023-01-23T09:49:30.863Z,102174.22
2023-01-23T09:52:17.569Z,102181.72
2023-01-23T09:54:47.965Z,102185.28
2023-01-23T09:57:18.892Z,102185.81
2023-01-23T10:00:00.652Z,102180.03
2023-01-23T10:02:27.868Z,102182.53
2023-01-23T10:04:56.547Z,102179.16
2023-01-23T10:07:49.362Z,102179.09
2023-01-23T10:10:25.268Z,102181.78
2023-01-23T10:13:07.875Z,102187.16
2023-01-23T10:15:57.346Z,102198.28
2023-01-23T10:18:28.131Z,102177.59
2023-01-23T10:21:03.761Z,102181.25
2023-01-23T10:23:41.952Z,102191.44
2023-01-23T10:26:15.984Z,102182.41
2023-01-23T10:28:44.344Z,102183.88
2023-01-23T10:31:38.824Z,102185.09
2023-01-23T10:34:18.542Z,102182.41
2023-01-23T10:37:13.256Z,102177.59
2023-01-23T10:39:49.067Z,102167.13
2023-01-23T10:42:20.969Z,102169.53
2023-01-23T10:44:47.936Z,102172.22
2023-01-23T10:47:38.838Z,102177.25
2023-01-23T10:50:07.956Z,102167.31
2023-01-23T10:52:39.146Z,102175.25
2023-01-23T10:55:28.602Z,102175.91
2023-01-23T10:58:03.201Z,102176.59
2023-01-23T11:00:39.595Z,102172.16
2023-01-23T11:03:26.455Z,102184.84
2023-01-23T11:06:02.098Z,102174.19
2023-01-23T11:08:40.423Z,102176.19
2023-01-23T11:11:15.960Z,102173.38
2023-01-23T11:13:47.635Z,102180.50
2023-01-23T11:16:19.814Z,102180.31
2023-01-23T11:18:54.517Z,102180.25
2023-01-23T11:21:28.479Z,102178.31
2023-01-23T11:24:27.754Z,102174.19
2023-01-23T11:27:15.655Z,102163.28
2023-01-23T11:30:05.615Z,102173.78
2023-01-23T11:32:38.199Z,102172.63
2023-01-23T11:35:20.576Z,102177.94
2023-01-23T11:37:49.339Z,102176.28
2023-01-23T11:40:20.068Z,102172.16
2023-01-23T11:42:47.402Z,102173.91
2023-01-23T11:45:16.939Z,102160.03
2023-01-23T11:47:55.247Z,102156.22
2023-01-23T11:50:54.132Z,102150.25
2023-01-23T11:53:41.493Z,102143.69
2023-01-23T11:56:26.325Z,102146.97
2023-01-23T11:58:58.754Z,102142.53
2023-01-23T12:01:40.054Z,102138.31
2023-01-23T12:04:12.306Z,102136.00
2023-01-23T12:07:05.825Z,102141.38
2023-01-23T12:10:13.801Z,102134.94
2023-01-23T12:13:09.265Z,102127.53
2023-01-23T12:16:03.290Z,102127.16
2023-01-23T12:19:12.362Z,102128.78
2023-01-23T12:22:00.175Z,102127.53
2023-01-23T12:24:42.205Z,102113.47
2023-01-23T12:27:17.657Z,102123.38
2023-01-23T12:30:19.158Z,102108.88
2023-01-23T12:33:12.348Z,102101.56
2023-01-23T12:36:03.370Z,102099.59
2023-01-23T12:38:41.597Z,102097.50
2023-01-23T12:41:22.839Z,102103.84
2023-01-23T12:44:21.100Z,102104.16
2023-01-23T12:46:57.804Z,102098.94
2023-01-23T12:49:31.772Z,102090.09
2023-01-23T12:52:19.853Z,102097.41
2023-01-23T12:54:56.038Z,102089.53
2023-01-23T12:57:59.272Z,102082.88
2023-01-23T13:01:03.952Z,102080.19
2023-01-23T13:03:45.440Z,102091.19
2023-01-23T13:07:00.384Z,102090.97
2023-01-23T13:09:49.872Z,102097.91
2023-01-23T13:12:25.332Z,102088.84
2023-01-23T13:15:14.682Z,102089.63
2023-01-23T13:17:51.801Z,102069.69
2023-01-23T13:20:40.072Z,102086.13
2023-01-23T13:23:32.875Z,102081.72
2023-01-23T13:26:22.913Z,102079.53
2023-01-23T13:28:55.210Z,102074.13
2023-01-23T13:31:50.432Z,102078.88
2023-01-23T13:34:19.227Z,102076.84
2023-01-23T13:36:50.491Z,102077.78
2023-01-23T13:39:16.955Z,102070.00
2023-01-23T13:41:46.301Z,102071.72
2023-01-23T13:44:40.290Z,102065.94
2023-01-23T14:22:10.959Z,102048.03
2023-01-23T14:24:49.897Z,102035.44
2023-01-23T14:27:29.547Z,102035.59
2023-01-23T14:30:15.740Z,102036.47
2023-01-23T14:32:43.077Z,102040.25
2023-01-23T14:35:23.341Z,102040.53
2023-01-23T14:37:52.441Z,102031.91
2023-01-23T14:40:27.646Z,102032.41
2023-01-23T14:43:05.506Z,102025.56
2023-01-23T14:45:33.616Z,102028.47
2023-01-23T14:48:05.979Z,102027.88
2023-01-23T14:50:33.524Z,102029.69
2023-01-23T14:53:05.337Z,102023.66
2023-01-23T14:55:37.619Z,102022.22
2023-01-23T14:58:04.467Z,102024.81
2023-01-23T15:00:35.655Z,102033.53
2023-01-23T15:03:04.360Z,102033.25
2023-01-23T15:05:32.825Z,102035.66
2023-01-23T15:08:03.966Z,102033.38
2023-01-23T15:10:47.002Z,102029.81
2023-01-23T15:13:15.691Z,102032.50
2023-01-23T15:15:46.738Z,102026.06
2023-01-23T15:18:51.217Z,102048.66
2023-01-23T15:21:29.320Z,102047.22
2023-01-23T15:24:00.629Z,102045.50
2023-01-23T15:26:34.572Z,102057.13
2023-01-23T15:29:17.815Z,102044.44
2023-01-23T15:31:53.007Z,102046.53
2023-01-23T15:34:23.953Z,102054.44
2023-01-23T15:37:11.526Z,102048.50
2023-01-23T15:39:49.782Z,102057.53
2023-01-23T15:42:16.197Z,102052.22
2023-01-23T15:44:43.269Z,102049.72
2023-01-23T15:47:10.543Z,102057.31
2023-01-23T15:49:39.198Z,102057.31
2023-01-23T15:52:26.400Z,102054.84
2023-01-23T15:54:56.721Z,102055.13
2023-01-23T15:57:23.195Z,102051.84
2023-01-23T15:59:49.835Z,102058.09
2023-01-23T16:02:29.944Z,102052.97
2023-01-23T16:05:03.050Z,102056.25
2023-01-23T16:07:35.278Z,102056.34
2023-01-23T16:10:16.724Z,102061.22
2023-01-23T16:12:43.966Z,102056.69
2023-01-23T16:15:14.913Z,102056.59
2023-01-23T16:17:41.443Z,102059.19
2023-01-23T16:20:20.400Z,102057.06
2023-01-23T16:22:54.073Z,102060.50
2023-01-23T16:25:44.094Z,102067.38
2023-01-23T16:28:20.131Z,102064.09
2023-01-23T16:30:47.916Z,102066.59
2023-01-23T16:33:14.690Z,102068.88
2023-01-23T16:35:41.659Z,102062.88
2023-01-23T16:38:20.899Z,102064.81
2023-01-23T16:40:51.612Z,102058.94
2023-01-23T16:43:17.965Z,102065.97
2023-01-23T16:45:44.929Z,102056.06
2023-01-23T16:48:21.670Z,102065.16
2023-01-23T16:50:56.680Z,102061.97
2023-01-23T16:53:29.490Z,102057.09
2023-01-23T16:55:57.564Z,102059.72
2023-01-23T16:58:27.545Z,102060.28
2023-01-23T17:01:00.122Z,102058.78
2023-01-23T17:03:29.591Z,102061.22
2023-01-23T17:05:56.102Z,102047.09
2023-01-23T17:08:25.072Z,102043.22
2023-01-23T17:10:56.611Z,102062.78
2023-01-23T17:13:23.469Z,102049.97
2023-01-23T17:15:52.918Z,102052.78
2023-01-23T17:18:26.029Z,102058.53
2023-01-23T17:20:54.816Z,102048.91
2023-01-23T17:23:22.140Z,102053.34
2023-01-23T17:25:59.884Z,102056.97
2023-01-23T17:28:27.694Z,102068.16
2023-01-23T17:30:55.430Z,102060.78
2023-01-23T17:33:27.780Z,102062.09
2023-01-23T17:35:54.395Z,102065.97
2023-01-23T17:38:23.490Z,102065.66
2023-01-23T17:40:50.519Z,102065.53
2023-01-23T17:43:18.362Z,102074.03
2023-01-23T17:45:47.516Z,102069.47
2023-01-23T17:48:17.733Z,102077.25
2023-01-23T17:50:46.513Z,102087.91
2023-01-23T17:53:15.106Z,102086.69
2023-01-23T17:55:43.679Z,102081.84
2023-01-23T17:58:10.264Z,102086.06
2023-01-23T18:00:39.104Z,102093.09
2023-01-23T18:03:07.967Z,102094.91
2023-01-23T18:05:34.476Z,102097.44
2023-01-23T18:08:00.862Z,102102.28
2023-01-23T18:10:29.809Z,102098.22
2023-01-23T18:13:00.090Z,102105.41
2023-01-23T18:15:47.721Z,102110.88
2023-01-23T18:18:26.254Z,102111.72
2023-01-23T18:20:54.756Z,102114.69
2023-01-23T18:23:23.128Z,102128.66
2023-01-23T18:26:16.423Z,102114.66
2023-01-23T18:28:58.113Z,102125.53
2023-01-23T18:32:00.775Z,102135.03
2023-01-23T18:34:58.427Z,102127.84
2023-01-23T18:37:46.833Z,102124.72
2023-01-23T18:40:28.932Z,102118.47
2023-01-23T18:43:03.764Z,102121.28
2023-01-23T18:45:33.327Z,102110.53
2023-01-23T18:48:00.247Z,102126.53
2023-01-23T18:50:27.156Z,102131.06
2023-01-23T18:53:12.146Z,102130.53
2023-01-23T18:55:49.019Z,102131.41
2023-01-23T18:58:19.592Z,102130.94
2023-01-23T19:01:23.851Z,102131.56
2023-01-23T19:03:50.796Z,102120.50
2023-01-23T19:06:23.144Z,102141.75
2023-01-23T19:08:50.728Z,102136.56
2023-01-23T19:11:38.833Z,102140.44
2023-01-23T19:14:24.539Z,102127.97
2023-01-23T19:17:03.911Z,102126.91
2023-01-23T19:19:49.184Z,102132.78
2023-01-23T19:22:18.848Z,102130.50
2023-01-23T19:24:45.602Z,102138.31
2023-01-23T19:27:23.516Z,102133.22
2023-01-23T19:29:50.142Z,102140.41
2023-01-23T19:32:17.004Z,102137.25
2023-01-23T19:34:43.601Z,102133.69
2023-01-23T19:37:10.068Z,102128.59
2023-01-23T19:39:36.582Z,102135.53
2023-01-23T19:42:03.076Z,102134.66
2023-01-23T19:44:30.181Z,102131.88
2023-01-23T19:46:56.744Z,102134.38
2023-01-23T19:49:25.115Z,102135.25
2023-01-23T19:51:51.758Z,102135.44
2023-01-23T19:54:23.715Z,102130.94
2023-01-23T19:56:50.587Z,102128.44
2023-01-23T19:59:19.610Z,102124.75
2023-01-23T20:01:49.567Z,102124.59
2023-01-23T20:04:19.930Z,102132.06
2023-01-23T20:06:51.607Z,102115.91
2023-01-23T20:09:18.299Z,102113.13
2023-01-23T20:11:47.637Z,102118.50
2023-01-23T20:14:14.259Z,102124.94
2023-01-23T20:16:42.891Z,102119.38
2023-01-23T20:19:16.817Z,102120.25
2023-01-23T20:21:43.586Z,102124.97
2023-01-23T20:24:10.317Z,102123.34
2023-01-23T20:26:37.684Z,102130.28
2023-01-23T20:29:05.566Z,102127.66
2023-01-23T20:31:36.015Z,102134.03
2023-01-23T20:34:02.703Z,102129.50
2023-01-23T20:36:29.272Z,102140.34
2023-01-23T20:38:56.736Z,102132.28
2023-01-23T20:41:23.223Z,102141.31
2023-01-23T20:43:49.905Z,102140.63
2023-01-23T20:46:20.422Z,102150.53
2023-01-23T20:48:47.208Z,102142.56
2023-01-23T20:51:16.216Z,102140.75
2023-01-23T20:53:43.235Z,102141.78
2023-01-23T20:56:18.848Z,102141.88
2023-01-23T20:59:06.562Z,102142.56
2023-01-23T21:02:01.446Z,102155.16
2023-01-23T21:04:33.045Z,102147.66
2023-01-23T21:07:06.060Z,102150.25
2023-01-23T21:09:32.474Z,102160.34
2023-01-23T21:11:59.059Z,102151.59
2023-01-23T21:14:25.516Z,102156.00
2023-01-23T21:16:52.005Z,102148.91
2023-01-23T21:19:21.365Z,102150.63
2023-01-23T21:21:48.192Z,102156.69
2023-01-23T21:24:14.664Z,102162.94
2023-01-23T21:26:44.052Z,102153.75
2023-01-23T21:29:11.007Z,102154.00
2023-01-23T21:31:41.496Z,102161.88
2023-01-23T21:34:11.579Z,102164.19
2023-01-23T21:36:41.066Z,102169.81
2023-01-23T21:39:13.217Z,102171.81
2023-01-23T21:41:39.801Z,102175.38
2023-01-23T21:44:06.307Z,102171.53
2023-01-23T21:46:35.167Z,102177.88
2023-01-23T21:49:01.581Z,102170.47
2023-01-23T21:51:28.004Z,102177.59
2023-01-23T21:53:54.664Z,102179.44
2023-01-23T21:56:22.943Z,102171.34
2023-01-23T21:58:50.338Z,102184.81
2023-01-23T22:01:32.086Z,102185.97
2023-01-23T22:04:18.025Z,102196.56
2023-01-23T22:06:45.636Z,102191.88
2023-01-23T22:09:18.108Z,102189.25
2023-01-23T22:11:47.533Z,102188.31
2023-01-23T22:14:14.998Z,102194.44
2023-01-23T22:16:49.371Z,102189.25
2023-01-23T22:19:20.098Z,102189.84
2023-01-23T22:21:48.296Z,102188.97
2023-01-23T22:24:15.125Z,102201.38
2023-01-23T22:26:41.846Z,102203.13
2023-01-23T22:29:08.749Z,102201.97
2023-01-23T22:31:37.622Z,102192.84
2023-01-23T22:34:11.361Z,102196.41
2023-01-23T22:36:37.784Z,102193.72
2023-01-23T22:39:04.478Z,102195.81
2023-01-23T22:41:33.284Z,102195.91
2023-01-23T22:44:02.034Z,102184.47
2023-01-23T22:46:28.941Z,102193.41
2023-01-23T22:48:56.084Z,102194.25
2023-01-23T22:51:28.226Z,102200.63
2023-01-23T22:53:55.727Z,102195.31
2023-01-23T22:56:23.843Z,102203.31
2023-01-23T22:58:52.467Z,102194.38
2023-01-23T23:01:27.300Z,102200.78
2023-01-23T23:03:55.985Z,102205.41
2023-01-23T23:06:22.443Z,102200.97
2023-01-23T23:08:49.429Z,102196.56
2023-01-23T23:11:18.934Z,102206.28
2023-01-23T23:13:46.040Z,102210.09
2023-01-23T23:16:18.374Z,102205.47
2023-01-23T23:18:52.581Z,102206.09
2023-01-23T23:21:21.753Z,102215.31
2023-01-23T23:23:48.506Z,102208.84
2023-01-23T23:26:15.814Z,102211.47
2023-01-23T23:28:42.434Z,102211.97
2023-01-23T23:31:09.859Z,102211.28
2023-01-23T23:33:36.741Z,102214.19
2023-01-23T23:36:03.304Z,102212.56
2023-01-23T23:38:29.738Z,102220.72
2023-01-23T23:41:01.995Z,102216.31
2023-01-23T23:43:31.167Z,102203.81
2023-01-23T23:46:01.725Z,102199.28
2023-01-23T23:48:30.092Z,102193.97
2023-01-23T23:51:00.333Z,102203.81
2023-01-23T23:53:27.639Z,102198.50
2023-01-23T23:55:54.215Z,102200.50
2023-01-23T23:58:20.863Z,102191.28
